createdAt,value
2018-05-31T00:01:40.261Z,17.80
2018-05-31T00:04:09.327Z,17.80
2018-05-31T00:06:38.357Z,17.70
2018-05-31T00:09:07.025Z,17.90
2018-05-31T00:11:35.695Z,17.80
2018-05-31T00:14:04.360Z,17.80
2018-05-31T00:16:33.024Z,17.70
2018-05-31T00:19:01.681Z,17.70
2018-05-31T00:21:30.721Z,17.70
2018-05-31T00:23:59.761Z,17.60
2018-05-31T00:26:28.412Z,17.80
2018-05-31T00:28:57.140Z,17.70
2018-05-31T00:31:26.569Z,17.80
2018-05-31T00:33:55.016Z,17.70
2018-05-31T00:36:23.653Z,17.70
2018-05-31T00:38:52.297Z,17.60
2018-05-31T00:41:21.705Z,17.70
2018-05-31T00:43:51.124Z,17.70
2018-05-31T00:46:19.449Z,17.70
2018-05-31T00:48:48.122Z,17.60
2018-05-31T00:51:17.161Z,17.70
2018-05-31T00:53:46.596Z,17.70
2018-05-31T00:56:17.618Z,17.70
2018-05-31T00:58:47.077Z,17.60
2018-05-31T01:01:15.742Z,17.70
2018-05-31T01:03:44.759Z,17.70
2018-05-31T01:06:13.460Z,17.60
2018-05-31T01:08:42.085Z,17.50
2018-05-31T01:11:11.532Z,17.40
2018-05-31T01:13:40.168Z,17.40
2018-05-31T01:16:09.598Z,17.50
2018-05-31T01:18:38.636Z,17.50
2018-05-31T01:21:07.292Z,17.50
2018-05-31T01:23:36.075Z,17.50
2018-05-31T01:26:04.728Z,17.50
2018-05-31T01:28:34.131Z,17.60
2018-05-31T01:31:02.793Z,17.40
2018-05-31T01:33:31.425Z,17.40
2018-05-31T01:36:00.188Z,17.40
2018-05-31T01:38:34.477Z,17.10
2018-05-31T01:41:03.120Z,16.90
2018-05-31T01:43:31.753Z,16.90
2018-05-31T01:46:00.412Z,16.70
2018-05-31T01:48:29.046Z,16.70
2018-05-31T01:50:57.777Z,16.50
2018-05-31T01:53:26.421Z,16.60
2018-05-31T01:55:55.118Z,16.50
2018-05-31T01:58:23.889Z,16.40
2018-05-31T02:00:52.537Z,16.40
2018-05-31T02:03:21.173Z,16.40
2018-05-31T02:06:00.268Z,16.40
2018-05-31T02:08:28.917Z,16.40
2018-05-31T02:10:57.572Z,16.30
2018-05-31T02:13:26.316Z,16.30
2018-05-31T02:15:54.981Z,16.30
2018-05-31T02:18:24.469Z,16.20
2018-05-31T02:20:54.016Z,16.20
2018-05-31T02:23:22.686Z,16.10
2018-05-31T02:25:51.349Z,16.10
2018-05-31T02:28:20.747Z,16.00
2018-05-31T02:30:49.530Z,16.00
2018-05-31T02:33:18.179Z,16.00
2018-05-31T02:35:46.825Z,15.90
2018-05-31T02:38:16.236Z,15.90
2018-05-31T02:40:44.951Z,15.90
2018-05-31T02:43:13.588Z,15.80
2018-05-31T02:45:42.323Z,15.80
2018-05-31T02:48:10.980Z,15.80
2018-05-31T02:50:40.392Z,15.80
2018-05-31T02:53:09.792Z,15.60
2018-05-31T02:55:38.464Z,15.60
2018-05-31T02:58:07.909Z,15.60
2018-05-31T03:00:36.689Z,15.70
2018-05-31T03:03:05.333Z,15.80
2018-05-31T03:05:33.996Z,15.70
2018-05-31T03:08:02.640Z,15.70
2018-05-31T03:10:31.352Z,15.60
2018-05-31T03:12:59.994Z,15.60
2018-05-31T03:15:29.439Z,15.50
2018-05-31T03:17:58.079Z,15.60
2018-05-31T03:20:26.723Z,15.60
2018-05-31T03:22:55.362Z,15.60
2018-05-31T03:25:24.801Z,15.70
2018-05-31T03:27:53.451Z,15.70
2018-05-31T03:30:22.857Z,15.80
2018-05-31T03:32:52.275Z,15.80
2018-05-31T03:35:20.918Z,15.70
2018-05-31T03:37:49.581Z,15.60
2018-05-31T03:40:18.265Z,15.50
2018-05-31T03:42:47.045Z,15.50
2018-05-31T03:45:15.685Z,15.50
2018-05-31T03:47:44.336Z,15.50
2018-05-31T03:50:13.000Z,15.60
2018-05-31T03:52:41.662Z,15.50
2018-05-31T03:55:11.205Z,15.60
2018-05-31T03:57:39.865Z,15.60
2018-05-31T04:00:08.533Z,15.60
2018-05-31T04:02:37.604Z,15.60
2018-05-31T04:05:06.392Z,15.80
2018-05-31T04:07:35.077Z,15.80
2018-05-31T04:10:03.692Z,15.80
2018-05-31T04:12:33.126Z,15.70
2018-05-31T04:15:01.886Z,15.90
2018-05-31T04:17:31.297Z,16.00
2018-05-31T04:20:00.760Z,16.00
2018-05-31T04:22:31.860Z,16.00
2018-05-31T04:25:00.492Z,16.10
2018-05-31T04:27:29.147Z,16.20
2018-05-31T04:29:57.813Z,16.20
2018-05-31T04:32:26.521Z,16.10
2018-05-31T04:34:55.179Z,16.20
2018-05-31T04:37:24.613Z,16.20
2018-05-31T04:39:53.360Z,16.20
2018-05-31T04:42:22.765Z,16.10
2018-05-31T04:44:52.186Z,16.20
2018-05-31T04:47:21.600Z,16.20
2018-05-31T04:49:50.645Z,16.30
2018-05-31T04:52:19.294Z,16.30
2018-05-31T04:54:49.207Z,16.40
2018-05-31T04:57:17.868Z,16.60
2018-05-31T04:59:47.288Z,16.40
2018-05-31T05:02:15.928Z,16.60
2018-05-31T05:04:46.092Z,16.70
2018-05-31T05:07:14.825Z,16.70
2018-05-31T05:09:43.657Z,16.70
2018-05-31T05:12:12.275Z,16.70
2018-05-31T05:14:41.064Z,17.00
2018-05-31T05:17:10.844Z,17.00
2018-05-31T05:19:40.276Z,17.00
2018-05-31T05:22:09.480Z,17.10
2018-05-31T05:24:38.348Z,17.10
2018-05-31T05:27:07.776Z,17.20
2018-05-31T05:29:37.230Z,17.30
2018-05-31T05:32:06.345Z,17.30
2018-05-31T05:34:35.380Z,17.50
2018-05-31T05:37:04.095Z,17.60
2018-05-31T05:39:33.191Z,17.60
2018-05-31T05:42:02.286Z,17.50
2018-05-31T05:44:31.340Z,17.70
2018-05-31T05:47:00.432Z,17.80
2018-05-31T05:49:29.330Z,17.90
2018-05-31T05:51:58.364Z,17.90
2018-05-31T05:54:27.999Z,17.80
2018-05-31T05:56:56.497Z,17.80
2018-05-31T05:59:25.573Z,17.90
2018-05-31T06:01:54.243Z,17.90
2018-05-31T06:04:24.629Z,17.90
2018-05-31T06:06:54.044Z,18.00
2018-05-31T06:09:23.133Z,18.00
2018-05-31T06:11:53.130Z,18.10
2018-05-31T06:14:22.968Z,18.20
2018-05-31T06:16:53.118Z,18.30
2018-05-31T06:19:22.954Z,18.30
2018-05-31T06:21:52.018Z,18.20
2018-05-31T06:24:21.921Z,18.40
2018-05-31T06:26:51.345Z,18.40
2018-05-31T06:29:20.646Z,18.50
2018-05-31T06:31:49.303Z,18.70
2018-05-31T06:34:18.392Z,18.70
2018-05-31T06:36:47.657Z,18.60
2018-05-31T06:39:16.486Z,18.70
2018-05-31T06:41:45.396Z,18.80
2018-05-31T06:44:14.600Z,18.90
2018-05-31T06:46:43.460Z,19.10
2018-05-31T06:49:12.432Z,18.90
2018-05-31T06:51:41.682Z,19.00
2018-05-31T06:54:11.063Z,19.20
2018-05-31T06:56:40.292Z,19.10
2018-05-31T06:59:08.724Z,19.30
2018-05-31T07:01:37.630Z,19.20
2018-05-31T07:04:06.857Z,19.40
2018-05-31T07:06:35.559Z,19.40
2018-05-31T07:09:05.281Z,19.50
2018-05-31T07:11:34.251Z,19.60
2018-05-31T07:14:03.525Z,19.60
2018-05-31T07:16:32.742Z,19.50
2018-05-31T07:19:01.191Z,19.70
2018-05-31T07:21:30.684Z,19.90
2018-05-31T07:24:00.917Z,19.90
2018-05-31T07:26:29.376Z,20.00
2018-05-31T07:28:58.601Z,20.00
2018-05-31T07:31:27.528Z,20.00
2018-05-31T07:33:57.411Z,20.00
2018-05-31T07:36:26.349Z,20.00
2018-05-31T07:38:55.554Z,19.90
2018-05-31T07:41:24.585Z,19.90
2018-05-31T07:43:53.428Z,20.10
2018-05-31T07:46:22.660Z,20.40
2018-05-31T07:48:51.482Z,20.30
2018-05-31T07:51:20.381Z,20.50
2018-05-31T07:53:49.397Z,20.60
2018-05-31T07:56:18.245Z,20.90
2018-05-31T07:58:47.442Z,20.90
2018-05-31T08:01:16.292Z,20.90
2018-05-31T08:03:45.160Z,20.80
2018-05-31T08:06:14.485Z,21.00
2018-05-31T08:08:43.329Z,21.10
2018-05-31T08:11:12.554Z,21.30
2018-05-31T08:13:41.628Z,21.20
2018-05-31T08:16:10.473Z,21.20
2018-05-31T08:18:39.322Z,21.10
2018-05-31T08:21:08.520Z,21.40
2018-05-31T08:23:37.785Z,21.50
2018-05-31T08:26:07.448Z,21.50
2018-05-31T08:28:36.417Z,21.40
2018-05-31T08:31:04.984Z,21.50
2018-05-31T08:33:33.545Z,21.80
2018-05-31T08:36:02.806Z,20.80
2018-05-31T08:38:31.720Z,22.10
2018-05-31T08:41:00.295Z,22.20
2018-05-31T08:43:29.537Z,22.10
2018-05-31T08:45:58.400Z,22.10
2018-05-31T08:48:27.741Z,22.30
2018-05-31T08:50:55.854Z,22.30
2018-05-31T08:53:24.892Z,22.30
2018-05-31T08:55:53.352Z,22.30
2018-05-31T08:58:22.885Z,22.40
2018-05-31T09:00:51.537Z,22.20
2018-05-31T09:03:20.092Z,22.20
2018-05-31T09:05:49.473Z,22.60
2018-05-31T09:08:17.977Z,22.80
2018-05-31T09:10:47.317Z,22.70
2018-05-31T09:13:15.861Z,22.80
2018-05-31T09:15:45.167Z,22.70
2018-05-31T09:18:14.620Z,22.80
2018-05-31T09:20:43.162Z,22.80
2018-05-31T09:23:11.664Z,22.90
2018-05-31T09:25:40.162Z,22.90
2018-05-31T09:28:08.621Z,22.90
2018-05-31T09:30:37.081Z,22.70
2018-05-31T09:33:05.945Z,22.80
2018-05-31T09:35:34.412Z,22.60
2018-05-31T09:38:02.940Z,22.90
2018-05-31T09:40:32.242Z,23.20
2018-05-31T09:43:01.585Z,23.50
2018-05-31T09:45:30.225Z,23.40
2018-05-31T09:47:59.666Z,23.30
2018-05-31T09:50:29.585Z,23.00
2018-05-31T09:52:58.360Z,23.30
2018-05-31T09:55:26.793Z,23.70
2018-05-31T09:57:55.517Z,23.70
2018-05-31T10:00:24.535Z,23.70
2018-05-31T10:02:53.309Z,24.00
2018-05-31T10:05:21.776Z,24.10
2018-05-31T10:07:52.771Z,24.10
2018-05-31T10:10:21.673Z,24.00
2018-05-31T10:12:50.191Z,24.10
2018-05-31T10:15:19.547Z,24.10
2018-05-31T10:17:48.211Z,24.30
2018-05-31T10:20:16.710Z,24.30
2018-05-31T10:22:45.201Z,23.90
2018-05-31T10:25:14.105Z,24.10
2018-05-31T10:27:42.549Z,24.30
2018-05-31T10:30:11.045Z,24.30
2018-05-31T10:32:39.910Z,24.30
2018-05-31T10:35:08.478Z,24.10
2018-05-31T10:37:37.596Z,24.50
2018-05-31T10:40:06.403Z,24.70
2018-05-31T10:42:35.733Z,24.70
2018-05-31T10:45:03.833Z,24.70
2018-05-31T10:47:33.081Z,24.90
2018-05-31T10:50:01.536Z,24.70
2018-05-31T10:52:30.765Z,24.70
2018-05-31T10:54:59.216Z,24.80
2018-05-31T10:57:28.795Z,25.00
2018-05-31T10:59:57.612Z,24.80
2018-05-31T11:02:26.468Z,25.20
2018-05-31T11:04:54.940Z,25.20
2018-05-31T11:07:23.390Z,25.00
2018-05-31T11:09:51.847Z,25.40
2018-05-31T11:12:21.042Z,25.60
2018-05-31T11:14:50.363Z,25.60
2018-05-31T11:17:19.767Z,25.50
2018-05-31T11:19:49.261Z,25.50
2018-05-31T11:22:17.745Z,25.60
2018-05-31T11:24:47.296Z,25.50
2018-05-31T11:27:16.320Z,25.60
2018-05-31T11:29:44.774Z,26.00
2018-05-31T11:32:13.604Z,25.90
2018-05-31T11:34:42.108Z,25.90
2018-05-31T11:37:11.203Z,26.30
2018-05-31T11:39:41.068Z,26.80
2018-05-31T11:42:10.914Z,27.30
2018-05-31T11:44:40.824Z,27.10
2018-05-31T11:47:09.717Z,27.70
2018-05-31T11:49:38.575Z,27.40
2018-05-31T11:52:07.822Z,27.80
2018-05-31T11:54:37.264Z,28.20
2018-05-31T11:57:06.106Z,28.30
2018-05-31T11:59:35.325Z,27.40
2018-05-31T12:02:04.611Z,27.10
2018-05-31T12:04:33.699Z,27.20
2018-05-31T12:07:02.549Z,27.20
2018-05-31T13:14:53.377Z,25.70
2018-05-31T13:29:49.432Z,24.60
2018-05-31T13:57:13.533Z,22.00
2018-05-31T21:58:51.053Z,17.90
2018-05-31T22:01:19.484Z,15.70
2018-05-31T22:03:47.957Z,14.80
2018-05-31T22:06:17.231Z,14.50
2018-05-31T22:08:45.701Z,14.60
2018-05-31T22:11:14.186Z,14.70
2018-05-31T22:13:42.637Z,14.50
2018-05-31T22:16:11.095Z,14.40
2018-05-31T22:18:39.597Z,14.40
2018-05-31T22:21:08.090Z,14.50
2018-05-31T22:23:36.390Z,14.60
2018-05-31T22:26:04.182Z,14.80
2018-05-31T22:28:33.564Z,14.80
2018-05-31T22:31:02.017Z,14.70
2018-05-31T22:33:30.489Z,14.80
2018-05-31T22:35:58.949Z,14.60
2018-05-31T22:38:27.409Z,14.60
2018-05-31T22:40:55.836Z,14.40
2018-05-31T22:43:24.293Z,14.50
2018-05-31T22:45:53.510Z,14.50
2018-05-31T22:48:22.153Z,14.40
2018-05-31T22:50:50.599Z,14.40
2018-05-31T22:53:19.197Z,14.40
2018-05-31T22:55:47.728Z,14.30
2018-05-31T22:58:16.972Z,14.40
2018-05-31T23:00:45.573Z,14.30
2018-05-31T23:03:14.019Z,14.30
2018-05-31T23:05:42.462Z,14.30
2018-05-31T23:08:11.886Z,14.30
2018-05-31T23:10:41.852Z,14.20
2018-05-31T23:13:10.310Z,14.40
2018-05-31T23:15:38.744Z,14.30
2018-05-31T23:18:07.197Z,14.40
2018-05-31T23:20:35.772Z,14.40
2018-05-31T23:55:27.881Z,14.60
2018-05-31T23:57:58.004Z,14.40
